sensor_id;sensor_type;location;lat;lon;timestamp;P1;durP1;ratioP1;P2;durP2;ratioP2
59097;SDS011;44883;52.760;6.610;2022-12-18T00:01:34;44.45;;;17.88;;
59097;SDS011;44883;52.760;6.610;2022-12-18T00:04:02;47.15;;;18.27;;
59097;SDS011;44883;52.760;6.610;2022-12-18T00:06:29;54.42;;;19.48;;
59097;SDS011;44883;52.760;6.610;2022-12-18T00:08:56;40.88;;;14.55;;
59097;SDS011;44883;52.760;6.610;2022-12-18T00:11:23;51.63;;;20.13;;
59097;SDS011;44883;52.760;6.610;2022-12-18T00:13:51;49.85;;;18.65;;
59097;SDS011;44883;52.760;6.610;2022-12-18T00:16:19;54.80;;;19.42;;
59097;SDS011;44883;52.760;6.610;2022-12-18T00:18:47;37.10;;;14.68;;
59097;SDS011;44883;52.760;6.610;2022-12-18T00:21:14;44.97;;;15.88;;
59097;SDS011;44883;52.760;6.610;2022-12-18T00:23:41;41.70;;;14.32;;
59097;SDS011;44883;52.760;6.610;2022-12-18T00:26:12;48.13;;;18.35;;
59097;SDS011;44883;52.760;6.610;2022-12-18T00:28:40;41.92;;;17.85;;
59097;SDS011;44883;52.760;6.610;2022-12-18T00:31:12;48.95;;;18.13;;
59097;SDS011;44883;52.760;6.610;2022-12-18T00:33:39;59.53;;;21.10;;
59097;SDS011;44883;52.760;6.610;2022-12-18T00:36:15;53.75;;;18.35;;
59097;SDS011;44883;52.760;6.610;2022-12-18T00:38:43;60.72;;;23.13;;
59097;SDS011;44883;52.760;6.610;2022-12-18T00:41:09;59.80;;;22.45;;
59097;SDS011;44883;52.760;6.610;2022-12-18T00:43:36;53.90;;;18.70;;
59097;SDS011;44883;52.760;6.610;2022-12-18T00:46:03;51.55;;;19.40;;
59097;SDS011;44883;52.760;6.610;2022-12-18T00:48:29;56.97;;;22.48;;
59097;SDS011;44883;52.760;6.610;2022-12-18T00:50:55;64.43;;;22.35;;
59097;SDS011;44883;52.760;6.610;2022-12-18T00:53:21;60.70;;;21.25;;
59097;SDS011;44883;52.760;6.610;2022-12-18T00:55:47;55.35;;;20.80;;
59097;SDS011;44883;52.760;6.610;2022-12-18T00:58:13;58.58;;;21.73;;
59097;SDS011;44883;52.760;6.610;2022-12-18T01:00:40;56.97;;;22.23;;
59097;SDS011;44883;52.760;6.610;2022-12-18T01:03:06;59.05;;;22.23;;
59097;SDS011;44883;52.760;6.610;2022-12-18T01:05:31;62.92;;;23.70;;
59097;SDS011;44883;52.760;6.610;2022-12-18T01:07:57;61.60;;;22.05;;
59097;SDS011;44883;52.760;6.610;2022-12-18T01:10:24;63.42;;;24.45;;
59097;SDS011;44883;52.760;6.610;2022-12-18T01:12:51;71.32;;;24.75;;
59097;SDS011;44883;52.760;6.610;2022-12-18T01:15:17;72.70;;;26.05;;
59097;SDS011;44883;52.760;6.610;2022-12-18T01:17:43;80.20;;;25.25;;
59097;SDS011;44883;52.760;6.610;2022-12-18T01:20:10;67.97;;;24.75;;
59097;SDS011;44883;52.760;6.610;2022-12-18T01:22:36;65.35;;;21.75;;
59097;SDS011;44883;52.760;6.610;2022-12-18T01:25:02;75.90;;;25.58;;
59097;SDS011;44883;52.760;6.610;2022-12-18T01:27:29;73.85;;;25.08;;
59097;SDS011;44883;52.760;6.610;2022-12-18T01:29:55;66.40;;;24.17;;
59097;SDS011;44883;52.760;6.610;2022-12-18T01:32:20;57.10;;;23.50;;
59097;SDS011;44883;52.760;6.610;2022-12-18T01:34:47;84.65;;;25.70;;
59097;SDS011;44883;52.760;6.610;2022-12-18T01:37:12;63.55;;;21.25;;
59097;SDS011;44883;52.760;6.610;2022-12-18T01:39:38;48.88;;;16.63;;
59097;SDS011;44883;52.760;6.610;2022-12-18T01:42:11;68.80;;;23.40;;
59097;SDS011;44883;52.760;6.610;2022-12-18T01:50:08;49.20;;;19.30;;
59097;SDS011;44883;52.760;6.610;2022-12-18T01:52:37;58.05;;;20.83;;
59097;SDS011;44883;52.760;6.610;2022-12-18T01:55:04;52.30;;;16.60;;
59097;SDS011;44883;52.760;6.610;2022-12-18T01:57:31;63.55;;;19.33;;
59097;SDS011;44883;52.760;6.610;2022-12-18T01:59:59;67.47;;;24.15;;
59097;SDS011;44883;52.760;6.610;2022-12-18T02:02:28;74.40;;;26.05;;
59097;SDS011;44883;52.760;6.610;2022-12-18T02:04:54;67.57;;;21.15;;
59097;SDS011;44883;52.760;6.610;2022-12-18T02:07:23;74.82;;;23.50;;
59097;SDS011;44883;52.760;6.610;2022-12-18T02:10:07;75.45;;;25.80;;
59097;SDS011;44883;52.760;6.610;2022-12-18T02:15:30;73.88;;;24.60;;
59097;SDS011;44883;52.760;6.610;2022-12-18T02:18:30;61.20;;;22.27;;
59097;SDS011;44883;52.760;6.610;2022-12-18T02:26:45;54.45;;;20.63;;
59097;SDS011;44883;52.760;6.610;2022-12-18T02:29:16;60.38;;;19.98;;
59097;SDS011;44883;52.760;6.610;2022-12-18T02:31:57;61.03;;;22.77;;
59097;SDS011;44883;52.760;6.610;2022-12-18T02:34:31;73.60;;;22.77;;
59097;SDS011;44883;52.760;6.610;2022-12-18T02:37:00;53.42;;;18.73;;
59097;SDS011;44883;52.760;6.610;2022-12-18T02:39:29;46.97;;;19.75;;
59097;SDS011;44883;52.760;6.610;2022-12-18T02:41:57;65.25;;;24.00;;
59097;SDS011;44883;52.760;6.610;2022-12-18T02:44:24;65.75;;;24.17;;
59097;SDS011;44883;52.760;6.610;2022-12-18T02:46:50;73.88;;;23.92;;
59097;SDS011;44883;52.760;6.610;2022-12-18T02:57:23;53.75;;;20.52;;
59097;SDS011;44883;52.760;6.610;2022-12-18T03:00:07;77.13;;;24.25;;
59097;SDS011;44883;52.760;6.610;2022-12-18T03:02:47;59.65;;;22.17;;
59097;SDS011;44883;52.760;6.610;2022-12-18T03:05:42;57.70;;;21.67;;
59097;SDS011;44883;52.760;6.610;2022-12-18T03:08:17;80.50;;;25.20;;
59097;SDS011;44883;52.760;6.610;2022-12-18T03:10:49;74.05;;;25.10;;
59097;SDS011;44883;52.760;6.610;2022-12-18T03:13:31;61.13;;;23.42;;
59097;SDS011;44883;52.760;6.610;2022-12-18T03:16:01;63.92;;;23.70;;
59097;SDS011;44883;52.760;6.610;2022-12-18T03:18:30;56.08;;;20.33;;
59097;SDS011;44883;52.760;6.610;2022-12-18T03:21:08;44.72;;;19.25;;
59097;SDS011;44883;52.760;6.610;2022-12-18T03:23:40;43.03;;;15.05;;
59097;SDS011;44883;52.760;6.610;2022-12-18T03:26:09;57.05;;;18.58;;
59097;SDS011;44883;52.760;6.610;2022-12-18T03:28:39;51.35;;;18.17;;
59097;SDS011;44883;52.760;6.610;2022-12-18T03:33:55;53.10;;;20.35;;
59097;SDS011;44883;52.760;6.610;2022-12-18T03:36:27;56.83;;;21.15;;
59097;SDS011;44883;52.760;6.610;2022-12-18T03:38:56;58.45;;;18.13;;
59097;SDS011;44883;52.760;6.610;2022-12-18T03:41:32;44.60;;;17.25;;
59097;SDS011;44883;52.760;6.610;2022-12-18T03:44:29;50.70;;;19.17;;
59097;SDS011;44883;52.760;6.610;2022-12-18T03:52:48;49.15;;;18.63;;
59097;SDS011;44883;52.760;6.610;2022-12-18T03:55:19;50.17;;;19.52;;
59097;SDS011;44883;52.760;6.610;2022-12-18T03:57:48;50.30;;;19.10;;
59097;SDS011;44883;52.760;6.610;2022-12-18T04:00:15;53.53;;;20.40;;
59097;SDS011;44883;52.760;6.610;2022-12-18T04:02:43;46.63;;;20.83;;
59097;SDS011;44883;52.760;6.610;2022-12-18T04:05:12;49.35;;;19.25;;
59097;SDS011;44883;52.760;6.610;2022-12-18T04:07:39;47.30;;;18.90;;
59097;SDS011;44883;52.760;6.610;2022-12-18T04:10:06;40.80;;;16.27;;
59097;SDS011;44883;52.760;6.610;2022-12-18T04:12:33;41.80;;;18.05;;
59097;SDS011;44883;52.760;6.610;2022-12-18T04:14:58;45.17;;;17.92;;
59097;SDS011;44883;52.760;6.610;2022-12-18T04:17:24;46.45;;;19.02;;
59097;SDS011;44883;52.760;6.610;2022-12-18T04:19:50;41.17;;;17.58;;
59097;SDS011;44883;52.760;6.610;2022-12-18T04:22:15;37.25;;;16.17;;
59097;SDS011;44883;52.760;6.610;2022-12-18T04:24:41;40.40;;;16.42;;
59097;SDS011;44883;52.760;6.610;2022-12-18T04:27:07;48.05;;;19.08;;
59097;SDS011;44883;52.760;6.610;2022-12-18T04:29:32;35.80;;;15.07;;
59097;SDS011;44883;52.760;6.610;2022-12-18T04:31:58;40.25;;;17.98;;
59097;SDS011;44883;52.760;6.610;2022-12-18T04:34:23;41.90;;;16.75;;
59097;SDS011;44883;52.760;6.610;2022-12-18T04:36:49;40.53;;;17.70;;
59097;SDS011;44883;52.760;6.610;2022-12-18T04:39:15;40.47;;;15.57;;
59097;SDS011;44883;52.760;6.610;2022-12-18T04:41:40;43.50;;;17.35;;
59097;SDS011;44883;52.760;6.610;2022-12-18T04:44:06;39.38;;;16.67;;
59097;SDS011;44883;52.760;6.610;2022-12-18T04:46:32;42.15;;;16.63;;
59097;SDS011;44883;52.760;6.610;2022-12-18T04:48:57;38.90;;;15.25;;
59097;SDS011;44883;52.760;6.610;2022-12-18T04:51:23;41.83;;;16.75;;
59097;SDS011;44883;52.760;6.610;2022-12-18T04:53:48;40.20;;;14.50;;
59097;SDS011;44883;52.760;6.610;2022-12-18T04:56:14;41.92;;;15.20;;
59097;SDS011;44883;52.760;6.610;2022-12-18T04:58:41;32.25;;;13.93;;
59097;SDS011;44883;52.760;6.610;2022-12-18T05:01:08;34.40;;;14.05;;
59097;SDS011;44883;52.760;6.610;2022-12-18T05:03:35;27.00;;;13.55;;
59097;SDS011;44883;52.760;6.610;2022-12-18T05:06:01;28.63;;;11.23;;
59097;SDS011;44883;52.760;6.610;2022-12-18T05:08:27;31.25;;;12.13;;
59097;SDS011;44883;52.760;6.610;2022-12-18T05:11:00;27.52;;;12.05;;
59097;SDS011;44883;52.760;6.610;2022-12-18T05:13:27;34.60;;;13.75;;
59097;SDS011;44883;52.760;6.610;2022-12-18T05:15:54;34.80;;;13.30;;
59097;SDS011;44883;52.760;6.610;2022-12-18T05:18:20;32.38;;;15.48;;
59097;SDS011;44883;52.760;6.610;2022-12-18T05:20:46;32.20;;;13.32;;
59097;SDS011;44883;52.760;6.610;2022-12-18T05:23:12;28.33;;;13.57;;
59097;SDS011;44883;52.760;6.610;2022-12-18T05:25:38;34.78;;;14.98;;
59097;SDS011;44883;52.760;6.610;2022-12-18T05:28:03;34.65;;;14.50;;
59097;SDS011;44883;52.760;6.610;2022-12-18T05:30:29;30.90;;;13.70;;
59097;SDS011;44883;52.760;6.610;2022-12-18T05:32:55;26.75;;;12.23;;
59097;SDS011;44883;52.760;6.610;2022-12-18T05:35:20;35.00;;;14.35;;
59097;SDS011;44883;52.760;6.610;2022-12-18T05:37:46;27.70;;;12.75;;
59097;SDS011;44883;52.760;6.610;2022-12-18T05:40:11;28.38;;;12.23;;
59097;SDS011;44883;52.760;6.610;2022-12-18T05:42:37;31.40;;;13.70;;
59097;SDS011;44883;52.760;6.610;2022-12-18T05:45:03;28.50;;;12.70;;
59097;SDS011;44883;52.760;6.610;2022-12-18T05:47:29;23.20;;;10.73;;
59097;SDS011;44883;52.760;6.610;2022-12-18T05:49:55;28.75;;;13.57;;
59097;SDS011;44883;52.760;6.610;2022-12-18T05:52:21;24.55;;;10.98;;
59097;SDS011;44883;52.760;6.610;2022-12-18T05:54:47;27.45;;;12.02;;
59097;SDS011;44883;52.760;6.610;2022-12-18T05:57:12;24.73;;;11.75;;
59097;SDS011;44883;52.760;6.610;2022-12-18T05:59:38;27.88;;;12.43;;
59097;SDS011;44883;52.760;6.610;2022-12-18T06:02:04;33.47;;;12.43;;
59097;SDS011;44883;52.760;6.610;2022-12-18T06:04:29;29.90;;;12.23;;
59097;SDS011;44883;52.760;6.610;2022-12-18T06:06:55;32.33;;;14.38;;
59097;SDS011;44883;52.760;6.610;2022-12-18T06:09:21;28.40;;;11.10;;
59097;SDS011;44883;52.760;6.610;2022-12-18T06:11:47;37.28;;;14.77;;
59097;SDS011;44883;52.760;6.610;2022-12-18T06:14:15;34.28;;;14.15;;
59097;SDS011;44883;52.760;6.610;2022-12-18T06:16:42;30.60;;;12.18;;
59097;SDS011;44883;52.760;6.610;2022-12-18T06:19:07;36.10;;;12.88;;
59097;SDS011;44883;52.760;6.610;2022-12-18T06:21:38;31.50;;;13.55;;
59097;SDS011;44883;52.760;6.610;2022-12-18T06:24:04;26.10;;;11.43;;
59097;SDS011;44883;52.760;6.610;2022-12-18T06:26:30;20.35;;;8.15;;
59097;SDS011;44883;52.760;6.610;2022-12-18T06:28:55;17.08;;;6.47;;
59097;SDS011;44883;52.760;6.610;2022-12-18T06:31:21;11.43;;;5.68;;
59097;SDS011;44883;52.760;6.610;2022-12-18T06:33:46;18.50;;;8.93;;
59097;SDS011;44883;52.760;6.610;2022-12-18T06:36:12;22.85;;;10.63;;
59097;SDS011;44883;52.760;6.610;2022-12-18T06:38:39;11.15;;;6.38;;
59097;SDS011;44883;52.760;6.610;2022-12-18T06:41:07;20.17;;;8.55;;
59097;SDS011;44883;52.760;6.610;2022-12-18T06:43:39;24.42;;;9.23;;
59097;SDS011;44883;52.760;6.610;2022-12-18T06:46:05;12.80;;;4.78;;
59097;SDS011;44883;52.760;6.610;2022-12-18T06:48:31;19.02;;;8.25;;
59097;SDS011;44883;52.760;6.610;2022-12-18T06:50:57;27.63;;;10.52;;
59097;SDS011;44883;52.760;6.610;2022-12-18T06:53:22;27.45;;;11.95;;
59097;SDS011;44883;52.760;6.610;2022-12-18T06:55:48;27.17;;;11.70;;
59097;SDS011;44883;52.760;6.610;2022-12-18T06:58:14;15.52;;;6.05;;
59097;SDS011;44883;52.760;6.610;2022-12-18T07:00:40;25.00;;;10.13;;
59097;SDS011;44883;52.760;6.610;2022-12-18T07:03:06;20.23;;;8.70;;
59097;SDS011;44883;52.760;6.610;2022-12-18T07:05:31;13.60;;;6.63;;
59097;SDS011;44883;52.760;6.610;2022-12-18T07:07:57;19.95;;;8.50;;
59097;SDS011;44883;52.760;6.610;2022-12-18T07:10:23;20.65;;;8.77;;
59097;SDS011;44883;52.760;6.610;2022-12-18T07:12:49;14.57;;;4.55;;
59097;SDS011;44883;52.760;6.610;2022-12-18T07:15:15;21.17;;;10.60;;
59097;SDS011;44883;52.760;6.610;2022-12-18T07:17:40;13.48;;;5.65;;
59097;SDS011;44883;52.760;6.610;2022-12-18T07:20:06;11.02;;;4.70;;
59097;SDS011;44883;52.760;6.610;2022-12-18T07:22:32;13.90;;;9.82;;
59097;SDS011;44883;52.760;6.610;2022-12-18T07:24:58;23.10;;;9.63;;
59097;SDS011;44883;52.760;6.610;2022-12-18T07:27:23;24.95;;;11.13;;
59097;SDS011;44883;52.760;6.610;2022-12-18T07:29:49;26.35;;;12.90;;
59097;SDS011;44883;52.760;6.610;2022-12-18T07:32:15;16.20;;;8.15;;
59097;SDS011;44883;52.760;6.610;2022-12-18T07:34:40;17.58;;;8.05;;
59097;SDS011;44883;52.760;6.610;2022-12-18T07:37:06;10.30;;;3.95;;
59097;SDS011;44883;52.760;6.610;2022-12-18T07:39:32;11.82;;;5.97;;
59097;SDS011;44883;52.760;6.610;2022-12-18T07:41:57;24.65;;;10.13;;
59097;SDS011;44883;52.760;6.610;2022-12-18T07:44:41;24.95;;;11.52;;
59097;SDS011;44883;52.760;6.610;2022-12-18T07:47:07;24.67;;;11.98;;
59097;SDS011;44883;52.760;6.610;2022-12-18T07:49:33;22.58;;;7.78;;
59097;SDS011;44883;52.760;6.610;2022-12-18T07:51:58;19.35;;;9.10;;
59097;SDS011;44883;52.760;6.610;2022-12-18T07:54:24;19.15;;;8.63;;
59097;SDS011;44883;52.760;6.610;2022-12-18T07:56:50;15.15;;;6.72;;
59097;SDS011;44883;52.760;6.610;2022-12-18T07:59:16;23.27;;;11.70;;
59097;SDS011;44883;52.760;6.610;2022-12-18T08:01:42;22.75;;;10.48;;
59097;SDS011;44883;52.760;6.610;2022-12-18T08:04:08;17.83;;;8.00;;
59097;SDS011;44883;52.760;6.610;2022-12-18T08:06:33;15.68;;;7.97;;
59097;SDS011;44883;52.760;6.610;2022-12-18T08:08:59;23.98;;;12.10;;
59097;SDS011;44883;52.760;6.610;2022-12-18T08:11:26;16.48;;;9.15;;
59097;SDS011;44883;52.760;6.610;2022-12-18T08:13:52;26.80;;;11.27;;
59097;SDS011;44883;52.760;6.610;2022-12-18T08:16:18;24.17;;;8.30;;
59097;SDS011;44883;52.760;6.610;2022-12-18T08:18:44;13.65;;;6.80;;
59097;SDS011;44883;52.760;6.610;2022-12-18T08:21:11;14.70;;;8.18;;
59097;SDS011;44883;52.760;6.610;2022-12-18T08:23:40;20.30;;;9.85;;
59097;SDS011;44883;52.760;6.610;2022-12-18T08:26:06;13.63;;;5.97;;
59097;SDS011;44883;52.760;6.610;2022-12-18T08:28:32;19.70;;;9.90;;
59097;SDS011;44883;52.760;6.610;2022-12-18T08:30:58;14.77;;;6.47;;
59097;SDS011;44883;52.760;6.610;2022-12-18T08:33:23;19.73;;;9.13;;
59097;SDS011;44883;52.760;6.610;2022-12-18T08:35:49;21.73;;;8.75;;
59097;SDS011;44883;52.760;6.610;2022-12-18T08:38:15;17.05;;;8.38;;
59097;SDS011;44883;52.760;6.610;2022-12-18T08:40:40;14.52;;;7.63;;
59097;SDS011;44883;52.760;6.610;2022-12-18T08:43:07;9.68;;;6.13;;
59097;SDS011;44883;52.760;6.610;2022-12-18T08:45:53;16.77;;;8.15;;
59097;SDS011;44883;52.760;6.610;2022-12-18T08:48:19;22.60;;;10.25;;
59097;SDS011;44883;52.760;6.610;2022-12-18T08:50:53;15.55;;;7.43;;
59097;SDS011;44883;52.760;6.610;2022-12-18T08:53:19;17.80;;;8.70;;
59097;SDS011;44883;52.760;6.610;2022-12-18T08:55:45;19.05;;;9.43;;
59097;SDS011;44883;52.760;6.610;2022-12-18T08:58:10;18.30;;;8.45;;
59097;SDS011;44883;52.760;6.610;2022-12-18T09:00:36;11.88;;;5.00;;
59097;SDS011;44883;52.760;6.610;2022-12-18T09:03:01;15.65;;;8.52;;
59097;SDS011;44883;52.760;6.610;2022-12-18T09:05:27;18.10;;;8.30;;
59097;SDS011;44883;52.760;6.610;2022-12-18T09:07:52;14.38;;;7.70;;
59097;SDS011;44883;52.760;6.610;2022-12-18T09:10:18;14.82;;;5.93;;
59097;SDS011;44883;52.760;6.610;2022-12-18T09:12:43;14.00;;;6.78;;
59097;SDS011;44883;52.760;6.610;2022-12-18T09:15:09;11.27;;;5.88;;
59097;SDS011;44883;52.760;6.610;2022-12-18T09:17:35;16.35;;;7.78;;
59097;SDS011;44883;52.760;6.610;2022-12-18T09:20:00;9.98;;;4.88;;
59097;SDS011;44883;52.760;6.610;2022-12-18T09:22:26;15.63;;;7.72;;
59097;SDS011;44883;52.760;6.610;2022-12-18T09:24:51;13.18;;;6.22;;
59097;SDS011;44883;52.760;6.610;2022-12-18T09:27:17;15.30;;;6.75;;
59097;SDS011;44883;52.760;6.610;2022-12-18T09:29:43;12.30;;;6.00;;
59097;SDS011;44883;52.760;6.610;2022-12-18T09:32:08;12.70;;;6.93;;
59097;SDS011;44883;52.760;6.610;2022-12-18T09:34:34;10.48;;;5.72;;
59097;SDS011;44883;52.760;6.610;2022-12-18T09:37:00;9.77;;;4.88;;
59097;SDS011;44883;52.760;6.610;2022-12-18T09:39:25;15.95;;;7.30;;
59097;SDS011;44883;52.760;6.610;2022-12-18T09:41:52;15.43;;;7.38;;
59097;SDS011;44883;52.760;6.610;2022-12-18T09:44:30;12.27;;;6.35;;
59097;SDS011;44883;52.760;6.610;2022-12-18T09:47:03;13.65;;;6.15;;
59097;SDS011;44883;52.760;6.610;2022-12-18T09:49:38;13.52;;;6.55;;
59097;SDS011;44883;52.760;6.610;2022-12-18T09:52:11;11.60;;;5.32;;
59097;SDS011;44883;52.760;6.610;2022-12-18T09:57:43;14.77;;;7.43;;
59097;SDS011;44883;52.760;6.610;2022-12-18T10:00:24;9.50;;;5.95;;
59097;SDS011;44883;52.760;6.610;2022-12-18T10:02:57;10.98;;;5.03;;
59097;SDS011;44883;52.760;6.610;2022-12-18T10:08:17;12.68;;;5.93;;
59097;SDS011;44883;52.760;6.610;2022-12-18T10:10:52;11.70;;;5.85;;
59097;SDS011;44883;52.760;6.610;2022-12-18T10:16:00;10.80;;;5.32;;
59097;SDS011;44883;52.760;6.610;2022-12-18T10:21:30;13.07;;;5.82;;
59097;SDS011;44883;52.760;6.610;2022-12-18T10:26:40;15.13;;;6.93;;
59097;SDS011;44883;52.760;6.610;2022-12-18T10:29:16;9.88;;;4.57;;
59097;SDS011;44883;52.760;6.610;2022-12-18T10:31:42;11.80;;;5.35;;
59097;SDS011;44883;52.760;6.610;2022-12-18T10:34:11;9.95;;;4.57;;
59097;SDS011;44883;52.760;6.610;2022-12-18T10:36:37;13.73;;;5.70;;
59097;SDS011;44883;52.760;6.610;2022-12-18T10:41:41;11.18;;;5.10;;
59097;SDS011;44883;52.760;6.610;2022-12-18T10:44:10;8.75;;;4.72;;
59097;SDS011;44883;52.760;6.610;2022-12-18T10:46:46;12.40;;;5.80;;
59097;SDS011;44883;52.760;6.610;2022-12-18T10:49:34;10.35;;;5.38;;
59097;SDS011;44883;52.760;6.610;2022-12-18T10:52:04;9.75;;;5.40;;
59097;SDS011;44883;52.760;6.610;2022-12-18T10:54:30;10.77;;;4.95;;
59097;SDS011;44883;52.760;6.610;2022-12-18T10:57:16;12.35;;;5.25;;
59097;SDS011;44883;52.760;6.610;2022-12-18T11:00:21;12.30;;;5.00;;
59097;SDS011;44883;52.760;6.610;2022-12-18T11:02:48;8.15;;;3.47;;
59097;SDS011;44883;52.760;6.610;2022-12-18T11:05:30;8.50;;;3.83;;
59097;SDS011;44883;52.760;6.610;2022-12-18T11:07:58;13.70;;;6.40;;
59097;SDS011;44883;52.760;6.610;2022-12-18T11:10:26;8.10;;;3.83;;
59097;SDS011;44883;52.760;6.610;2022-12-18T11:15:57;10.65;;;4.03;;
59097;SDS011;44883;52.760;6.610;2022-12-18T11:18:27;7.18;;;3.90;;
59097;SDS011;44883;52.760;6.610;2022-12-18T11:20:54;12.70;;;5.22;;
59097;SDS011;44883;52.760;6.610;2022-12-18T11:23:22;10.18;;;2.80;;
59097;SDS011;44883;52.760;6.610;2022-12-18T11:25:53;8.65;;;4.15;;
59097;SDS011;44883;52.760;6.610;2022-12-18T11:28:28;9.55;;;4.32;;
59097;SDS011;44883;52.760;6.610;2022-12-18T11:36:35;6.68;;;3.13;;
59097;SDS011;44883;52.760;6.610;2022-12-18T11:39:07;7.32;;;3.33;;
59097;SDS011;44883;52.760;6.610;2022-12-18T11:41:47;6.70;;;3.33;;
59097;SDS011;44883;52.760;6.610;2022-12-18T11:44:38;9.00;;;4.10;;
59097;SDS011;44883;52.760;6.610;2022-12-18T11:47:22;4.35;;;2.20;;
59097;SDS011;44883;52.760;6.610;2022-12-18T11:49:59;10.80;;;3.92;;
59097;SDS011;44883;52.760;6.610;2022-12-18T11:52:28;6.15;;;2.28;;
59097;SDS011;44883;52.760;6.610;2022-12-18T11:54:59;7.18;;;3.58;;
59097;SDS011;44883;52.760;6.610;2022-12-18T11:57:35;7.35;;;3.15;;
59097;SDS011;44883;52.760;6.610;2022-12-18T12:05:20;5.90;;;2.53;;
59097;SDS011;44883;52.760;6.610;2022-12-18T12:08:02;7.90;;;2.60;;
59097;SDS011;44883;52.760;6.610;2022-12-18T12:13:40;5.65;;;2.80;;
59097;SDS011;44883;52.760;6.610;2022-12-18T12:16:16;7.05;;;3.40;;
59097;SDS011;44883;52.760;6.610;2022-12-18T12:40:07;8.98;;;4.20;;
59097;SDS011;44883;52.760;6.610;2022-12-18T12:43:02;7.55;;;3.50;;
59097;SDS011;44883;52.760;6.610;2022-12-18T12:45:52;8.82;;;4.30;;
59097;SDS011;44883;52.760;6.610;2022-12-18T12:48:34;7.35;;;3.72;;
59097;SDS011;44883;52.760;6.610;2022-12-18T12:51:08;7.00;;;3.27;;
59097;SDS011;44883;52.760;6.610;2022-12-18T12:53:38;6.53;;;3.20;;
59097;SDS011;44883;52.760;6.610;2022-12-18T12:56:06;10.00;;;4.20;;
59097;SDS011;44883;52.760;6.610;2022-12-18T13:06:40;10.52;;;3.63;;
59097;SDS011;44883;52.760;6.610;2022-12-18T13:09:07;9.60;;;4.80;;
59097;SDS011;44883;52.760;6.610;2022-12-18T13:11:43;6.60;;;3.28;;
59097;SDS011;44883;52.760;6.610;2022-12-18T13:19:48;8.88;;;4.03;;
59097;SDS011;44883;52.760;6.610;2022-12-18T13:22:22;8.25;;;4.38;;
59097;SDS011;44883;52.760;6.610;2022-12-18T13:24:50;8.85;;;4.38;;
59097;SDS011;44883;52.760;6.610;2022-12-18T13:35:39;11.13;;;3.90;;
59097;SDS011;44883;52.760;6.610;2022-12-18T13:38:55;10.02;;;4.30;;
59097;SDS011;44883;52.760;6.610;2022-12-18T13:43:49;10.50;;;5.38;;
59097;SDS011;44883;52.760;6.610;2022-12-18T13:51:42;8.23;;;3.85;;
59097;SDS011;44883;52.760;6.610;2022-12-18T13:57:25;9.30;;;5.03;;
59097;SDS011;44883;52.760;6.610;2022-12-18T13:59:53;8.30;;;3.60;;
59097;SDS011;44883;52.760;6.610;2022-12-18T14:02:22;9.23;;;4.47;;
59097;SDS011;44883;52.760;6.610;2022-12-18T14:04:51;6.07;;;2.95;;
59097;SDS011;44883;52.760;6.610;2022-12-18T14:07:21;8.50;;;3.63;;
59097;SDS011;44883;52.760;6.610;2022-12-18T14:09:49;9.27;;;4.68;;
59097;SDS011;44883;52.760;6.610;2022-12-18T14:12:22;10.27;;;3.17;;
59097;SDS011;44883;52.760;6.610;2022-12-18T14:17:59;8.90;;;4.35;;
59097;SDS011;44883;52.760;6.610;2022-12-18T14:20:34;5.63;;;3.08;;
59097;SDS011;44883;52.760;6.610;2022-12-18T14:23:00;8.70;;;4.18;;
59097;SDS011;44883;52.760;6.610;2022-12-18T14:25:26;9.70;;;4.10;;
59097;SDS011;44883;52.760;6.610;2022-12-18T14:28:12;12.93;;;4.68;;
59097;SDS011;44883;52.760;6.610;2022-12-18T14:30:41;8.70;;;4.60;;
59097;SDS011;44883;52.760;6.610;2022-12-18T14:35:34;6.38;;;3.53;;
59097;SDS011;44883;52.760;6.610;2022-12-18T14:38:09;7.30;;;3.28;;
59097;SDS011;44883;52.760;6.610;2022-12-18T14:40:35;9.65;;;3.33;;
59097;SDS011;44883;52.760;6.610;2022-12-18T14:43:01;7.20;;;3.63;;
59097;SDS011;44883;52.760;6.610;2022-12-18T14:45:34;11.38;;;6.60;;
59097;SDS011;44883;52.760;6.610;2022-12-18T14:48:13;7.35;;;3.70;;
59097;SDS011;44883;52.760;6.610;2022-12-18T14:50:45;12.57;;;6.90;;
59097;SDS011;44883;52.760;6.610;2022-12-18T14:56:12;7.90;;;3.55;;
59097;SDS011;44883;52.760;6.610;2022-12-18T15:01:26;7.57;;;3.70;;
59097;SDS011;44883;52.760;6.610;2022-12-18T15:03:54;7.30;;;3.25;;
59097;SDS011;44883;52.760;6.610;2022-12-18T15:06:24;8.48;;;4.35;;
59097;SDS011;44883;52.760;6.610;2022-12-18T15:08:51;7.35;;;3.38;;
59097;SDS011;44883;52.760;6.610;2022-12-18T15:14:29;12.23;;;5.25;;
59097;SDS011;44883;52.760;6.610;2022-12-18T15:16:58;7.15;;;3.33;;
59097;SDS011;44883;52.760;6.610;2022-12-18T15:19:59;8.05;;;4.22;;
59097;SDS011;44883;52.760;6.610;2022-12-18T15:24:54;10.57;;;5.10;;
59097;SDS011;44883;52.760;6.610;2022-12-18T15:32:35;11.93;;;5.28;;
59097;SDS011;44883;52.760;6.610;2022-12-18T15:35:03;12.07;;;5.53;;
59097;SDS011;44883;52.760;6.610;2022-12-18T15:37:38;8.13;;;4.40;;
59097;SDS011;44883;52.760;6.610;2022-12-18T15:40:04;13.43;;;5.82;;
59097;SDS011;44883;52.760;6.610;2022-12-18T15:42:30;10.48;;;4.60;;
59097;SDS011;44883;52.760;6.610;2022-12-18T15:45:14;9.80;;;4.97;;
59097;SDS011;44883;52.760;6.610;2022-12-18T15:47:40;8.80;;;4.07;;
59097;SDS011;44883;52.760;6.610;2022-12-18T15:50:09;10.45;;;4.68;;
59097;SDS011;44883;52.760;6.610;2022-12-18T15:52:42;9.63;;;4.88;;
59097;SDS011;44883;52.760;6.610;2022-12-18T15:55:13;9.07;;;4.25;;
59097;SDS011;44883;52.760;6.610;2022-12-18T15:57:59;12.38;;;6.78;;
59097;SDS011;44883;52.760;6.610;2022-12-18T16:00:25;17.45;;;6.72;;
59097;SDS011;44883;52.760;6.610;2022-12-18T16:02:50;14.73;;;7.07;;
59097;SDS011;44883;52.760;6.610;2022-12-18T16:05:17;11.43;;;6.20;;
59097;SDS011;44883;52.760;6.610;2022-12-18T16:07:45;12.77;;;5.95;;
59097;SDS011;44883;52.760;6.610;2022-12-18T16:10:11;12.52;;;6.03;;
59097;SDS011;44883;52.760;6.610;2022-12-18T16:12:37;9.25;;;4.53;;
59097;SDS011;44883;52.760;6.610;2022-12-18T16:15:03;11.15;;;5.07;;
59097;SDS011;44883;52.760;6.610;2022-12-18T16:17:30;9.98;;;5.60;;
59097;SDS011;44883;52.760;6.610;2022-12-18T16:19:55;9.35;;;5.38;;
59097;SDS011;44883;52.760;6.610;2022-12-18T16:22:24;10.93;;;5.28;;
59097;SDS011;44883;52.760;6.610;2022-12-18T16:24:51;11.85;;;5.80;;
59097;SDS011;44883;52.760;6.610;2022-12-18T16:27:18;17.50;;;8.35;;
59097;SDS011;44883;52.760;6.610;2022-12-18T16:29:44;13.68;;;5.90;;
59097;SDS011;44883;52.760;6.610;2022-12-18T16:32:12;11.27;;;6.68;;
59097;SDS011;44883;52.760;6.610;2022-12-18T16:34:40;12.02;;;5.88;;
59097;SDS011;44883;52.760;6.610;2022-12-18T16:37:07;11.60;;;6.00;;
59097;SDS011;44883;52.760;6.610;2022-12-18T16:39:34;11.57;;;5.53;;
59097;SDS011;44883;52.760;6.610;2022-12-18T16:42:01;13.85;;;7.35;;
59097;SDS011;44883;52.760;6.610;2022-12-18T16:44:29;10.98;;;5.47;;
59097;SDS011;44883;52.760;6.610;2022-12-18T16:46:54;14.77;;;7.95;;
59097;SDS011;44883;52.760;6.610;2022-12-18T16:49:26;11.32;;;5.85;;
59097;SDS011;44883;52.760;6.610;2022-12-18T16:51:53;12.65;;;6.35;;
59097;SDS011;44883;52.760;6.610;2022-12-18T16:54:18;12.40;;;5.93;;
59097;SDS011;44883;52.760;6.610;2022-12-18T16:56:44;11.07;;;5.32;;
59097;SDS011;44883;52.760;6.610;2022-12-18T16:59:11;19.02;;;7.97;;
59097;SDS011;44883;52.760;6.610;2022-12-18T17:01:37;12.05;;;6.10;;
59097;SDS011;44883;52.760;6.610;2022-12-18T17:04:04;9.77;;;5.47;;